Stoneham, Colorado
Current Conditions -  °F | °C
As of 1:35 PM on Wednesday 26 Nov 2014 (Local Time) from KFMM Reporting Station
Overcast Overcast  
Wind Chill: 30°   Ceiling: 2100
Heat Index: 35°   Visibility: 10mi
Dew Point: 24°   Wind: 6mph
Humidity: 63%   Direction: 120°ESE
Pressure: 30.22"   Gusts: NA
Location:  40.61°N, 103.67°W
Report Text: KFMM 262035Z AUTO 12005KT 10SM OVC021 02/M05 A3022 RMK AO2 T00171047
Loading
Personal Weather Stations






























Interactive Weather Map New forecast layout! Learn more

10-Day Weather Forecast

Advertisements
Track Severe Weather on mobile